sensor_id;sensor_type;location;lat;lon;timestamp;pressure;altitude;pressure_sealevel;temperature;humidity
60240;BME280;46102;39.012;-7.064;2023-05-10T00:00:17;98909.22;;;20.17;49.41
60240;BME280;46102;39.012;-7.064;2023-05-10T00:02:18;98903.56;;;20.14;49.41
60240;BME280;46102;39.012;-7.064;2023-05-10T00:04:19;98892.50;;;20.17;49.33
60240;BME280;46102;39.012;-7.064;2023-05-10T00:06:20;98888.84;;;20.13;49.23
60240;BME280;46102;39.012;-7.064;2023-05-10T00:08:20;98897.22;;;20.13;48.68
60240;BME280;46102;39.012;-7.064;2023-05-10T00:10:21;98885.88;;;20.03;49.11
60240;BME280;46102;39.012;-7.064;2023-05-10T00:12:22;98889.00;;;19.98;49.88
60240;BME280;46102;39.012;-7.064;2023-05-10T00:14:23;98891.38;;;19.99;49.96
60240;BME280;46102;39.012;-7.064;2023-05-10T00:16:24;98887.59;;;19.88;50.74
60240;BME280;46102;39.012;-7.064;2023-05-10T00:18:24;98888.38;;;19.85;51.31
60240;BME280;46102;39.012;-7.064;2023-05-10T00:20:25;98880.69;;;19.78;52.10
60240;BME280;46102;39.012;-7.064;2023-05-10T00:22:26;98886.19;;;19.74;52.46
60240;BME280;46102;39.012;-7.064;2023-05-10T00:24:27;98882.44;;;19.67;52.90
60240;BME280;46102;39.012;-7.064;2023-05-10T00:26:28;98870.13;;;19.68;53.21
60240;BME280;46102;39.012;-7.064;2023-05-10T00:28:30;98877.56;;;19.60;53.35
60240;BME280;46102;39.012;-7.064;2023-05-10T00:30:31;98876.47;;;19.45;53.70
60240;BME280;46102;39.012;-7.064;2023-05-10T00:32:32;98880.53;;;19.48;53.28
60240;BME280;46102;39.012;-7.064;2023-05-10T00:34:33;98873.03;;;19.52;53.30
60240;BME280;46102;39.012;-7.064;2023-05-10T00:36:33;98870.50;;;19.43;52.97
60240;BME280;46102;39.012;-7.064;2023-05-10T00:38:34;98881.84;;;19.34;52.34
60240;BME280;46102;39.012;-7.064;2023-05-10T00:40:36;98887.88;;;19.37;51.23
60240;BME280;46102;39.012;-7.064;2023-05-10T00:42:40;98896.13;;;19.33;51.23
60240;BME280;46102;39.012;-7.064;2023-05-10T00:44:41;98889.03;;;19.35;50.56
60240;BME280;46102;39.012;-7.064;2023-05-10T00:46:42;98895.78;;;19.34;50.54
60240;BME280;46102;39.012;-7.064;2023-05-10T00:48:44;98890.66;;;19.37;50.51
60240;BME280;46102;39.012;-7.064;2023-05-10T00:50:45;98879.88;;;19.35;50.11
60240;BME280;46102;39.012;-7.064;2023-05-10T00:52:46;98878.03;;;19.43;50.30
60240;BME280;46102;39.012;-7.064;2023-05-10T00:54:48;98876.72;;;19.37;50.41
60240;BME280;46102;39.012;-7.064;2023-05-10T00:56:51;98860.28;;;19.28;50.31
60240;BME280;46102;39.012;-7.064;2023-05-10T00:58:52;98855.06;;;19.26;50.20
60240;BME280;46102;39.012;-7.064;2023-05-10T01:00:54;98854.28;;;19.26;50.29
60240;BME280;46102;39.012;-7.064;2023-05-10T01:02:55;98846.50;;;19.16;50.52
60240;BME280;46102;39.012;-7.064;2023-05-10T01:04:56;98856.34;;;19.09;50.75
60240;BME280;46102;39.012;-7.064;2023-05-10T01:06:57;98844.34;;;19.05;50.72
60240;BME280;46102;39.012;-7.064;2023-05-10T01:08:58;98842.06;;;19.11;50.17
60240;BME280;46102;39.012;-7.064;2023-05-10T01:10:59;98843.50;;;19.05;49.94
60240;BME280;46102;39.012;-7.064;2023-05-10T01:13:00;98849.16;;;19.08;49.50
60240;BME280;46102;39.012;-7.064;2023-05-10T01:15:01;98843.59;;;19.08;49.37
60240;BME280;46102;39.012;-7.064;2023-05-10T01:17:03;98834.69;;;19.19;49.17
60240;BME280;46102;39.012;-7.064;2023-05-10T01:19:10;98834.16;;;19.13;49.26
60240;BME280;46102;39.012;-7.064;2023-05-10T01:23:45;98843.28;;;19.13;48.91
60240;BME280;46102;39.012;-7.064;2023-05-10T01:28:44;98833.84;;;19.18;48.67
60240;BME280;46102;39.012;-7.064;2023-05-10T01:35:41;98834.72;;;19.22;48.40
60240;BME280;46102;39.012;-7.064;2023-05-10T01:37:45;98832.63;;;19.16;48.48
60240;BME280;46102;39.012;-7.064;2023-05-10T01:39:54;98825.91;;;19.17;48.45
60240;BME280;46102;39.012;-7.064;2023-05-10T01:42:04;98833.00;;;19.14;48.50
60240;BME280;46102;39.012;-7.064;2023-05-10T01:44:33;98828.28;;;19.18;48.24
60240;BME280;46102;39.012;-7.064;2023-05-10T01:46:38;98827.50;;;19.18;48.41
60240;BME280;46102;39.012;-7.064;2023-05-10T01:48:44;98834.16;;;19.13;48.38
60240;BME280;46102;39.012;-7.064;2023-05-10T01:50:48;98828.59;;;19.13;48.40
60240;BME280;46102;39.012;-7.064;2023-05-10T01:52:53;98829.69;;;19.08;48.29
60240;BME280;46102;39.012;-7.064;2023-05-10T01:55:15;98820.13;;;19.06;48.42
60240;BME280;46102;39.012;-7.064;2023-05-10T01:57:19;98819.31;;;19.05;48.32
60240;BME280;46102;39.012;-7.064;2023-05-10T01:59:21;98808.91;;;19.02;48.29
60240;BME280;46102;39.012;-7.064;2023-05-10T02:01:24;98817.66;;;19.01;48.34
60240;BME280;46102;39.012;-7.064;2023-05-10T02:03:27;98817.56;;;18.97;48.33
60240;BME280;46102;39.012;-7.064;2023-05-10T02:05:30;98814.13;;;19.04;48.17
60240;BME280;46102;39.012;-7.064;2023-05-10T02:07:35;98809.31;;;19.01;48.09
60240;BME280;46102;39.012;-7.064;2023-05-10T02:09:36;98808.88;;;18.99;47.97
60240;BME280;46102;39.012;-7.064;2023-05-10T02:11:39;98810.84;;;18.98;48.01
60240;BME280;46102;39.012;-7.064;2023-05-10T02:13:41;98804.47;;;18.98;48.00
60240;BME280;46102;39.012;-7.064;2023-05-10T02:15:46;98810.91;;;19.02;47.80
60240;BME280;46102;39.012;-7.064;2023-05-10T02:17:48;98807.25;;;18.98;47.82
60240;BME280;46102;39.012;-7.064;2023-05-10T02:19:51;98802.56;;;19.02;47.73
60240;BME280;46102;39.012;-7.064;2023-05-10T02:21:54;98798.03;;;18.93;47.85
60240;BME280;46102;39.012;-7.064;2023-05-10T02:23:57;98808.00;;;18.95;47.76
60240;BME280;46102;39.012;-7.064;2023-05-10T02:26:00;98802.44;;;18.95;47.70
60240;BME280;46102;39.012;-7.064;2023-05-10T02:28:03;98807.63;;;18.96;47.56
60240;BME280;46102;39.012;-7.064;2023-05-10T02:30:06;98803.53;;;18.90;47.57
60240;BME280;46102;39.012;-7.064;2023-05-10T02:32:09;98804.69;;;18.89;47.65
60240;BME280;46102;39.012;-7.064;2023-05-10T02:34:11;98799.88;;;18.86;47.62
60240;BME280;46102;39.012;-7.064;2023-05-10T02:36:13;98795.09;;;18.86;47.56
60240;BME280;46102;39.012;-7.064;2023-05-10T02:38:19;98796.72;;;18.87;47.36
60240;BME280;46102;39.012;-7.064;2023-05-10T02:40:22;98798.72;;;18.87;47.44
60240;BME280;46102;39.012;-7.064;2023-05-10T02:42:27;98798.72;;;18.87;47.38
60240;BME280;46102;39.012;-7.064;2023-05-10T02:44:28;98788.00;;;18.89;47.22
60240;BME280;46102;39.012;-7.064;2023-05-10T02:46:31;98791.19;;;18.87;47.17
60240;BME280;46102;39.012;-7.064;2023-05-10T02:48:32;98789.56;;;18.86;47.29
60240;BME280;46102;39.012;-7.064;2023-05-10T02:50:33;98799.06;;;18.85;47.07
60240;BME280;46102;39.012;-7.064;2023-05-10T02:52:47;98793.94;;;18.87;46.81
60240;BME280;46102;39.012;-7.064;2023-05-10T02:54:50;98790.72;;;18.85;46.87
60240;BME280;46102;39.012;-7.064;2023-05-10T02:56:57;98792.53;;;18.78;47.03
60240;BME280;46102;39.012;-7.064;2023-05-10T02:59:00;98800.53;;;18.79;46.91
60240;BME280;46102;39.012;-7.064;2023-05-10T03:01:00;98806.81;;;18.76;47.03
60240;BME280;46102;39.012;-7.064;2023-05-10T03:03:01;98798.81;;;18.75;46.99
60240;BME280;46102;39.012;-7.064;2023-05-10T03:05:02;98789.75;;;18.58;47.17
60240;BME280;46102;39.012;-7.064;2023-05-10T03:07:04;98793.63;;;18.54;47.39
60240;BME280;46102;39.012;-7.064;2023-05-10T03:09:05;98783.91;;;18.63;47.22
60240;BME280;46102;39.012;-7.064;2023-05-10T03:11:37;98788.00;;;18.50;47.50
60240;BME280;46102;39.012;-7.064;2023-05-10T03:16:15;98787.03;;;18.42;47.63
60240;BME280;46102;39.012;-7.064;2023-05-10T03:18:22;98790.91;;;18.38;47.71
60240;BME280;46102;39.012;-7.064;2023-05-10T03:20:29;98788.84;;;18.35;47.75
60240;BME280;46102;39.012;-7.064;2023-05-10T03:22:37;98797.31;;;18.22;47.93
60240;BME280;46102;39.012;-7.064;2023-05-10T03:24:41;98792.13;;;18.21;48.05
60240;BME280;46102;39.012;-7.064;2023-05-10T03:26:44;98790.56;;;18.23;47.78
60240;BME280;46102;39.012;-7.064;2023-05-10T03:28:50;98791.66;;;18.19;48.12
60240;BME280;46102;39.012;-7.064;2023-05-10T03:30:53;98791.59;;;18.15;47.99
60240;BME280;46102;39.012;-7.064;2023-05-10T03:32:54;98789.91;;;18.10;48.12
60240;BME280;46102;39.012;-7.064;2023-05-10T03:34:55;98787.41;;;18.05;48.40
60240;BME280;46102;39.012;-7.064;2023-05-10T03:36:58;98780.97;;;18.01;48.29
60240;BME280;46102;39.012;-7.064;2023-05-10T03:39:01;98781.97;;;17.93;48.44
60240;BME280;46102;39.012;-7.064;2023-05-10T03:41:02;98778.91;;;17.98;48.54
60240;BME280;46102;39.012;-7.064;2023-05-10T03:43:03;98784.75;;;17.93;48.71
60240;BME280;46102;39.012;-7.064;2023-05-10T03:45:05;98784.00;;;17.96;48.60
60240;BME280;46102;39.012;-7.064;2023-05-10T03:47:06;98785.53;;;17.94;48.86
60240;BME280;46102;39.012;-7.064;2023-05-10T03:49:07;98790.47;;;17.84;49.06
60240;BME280;46102;39.012;-7.064;2023-05-10T03:51:08;98795.59;;;17.82;48.98
60240;BME280;46102;39.012;-7.064;2023-05-10T03:53:09;98790.19;;;17.74;49.23
60240;BME280;46102;39.012;-7.064;2023-05-10T03:55:12;98787.16;;;17.79;49.26
60240;BME280;46102;39.012;-7.064;2023-05-10T03:57:13;98786.25;;;17.75;49.27
60240;BME280;46102;39.012;-7.064;2023-05-10T03:59:13;98787.69;;;17.68;49.45
60240;BME280;46102;39.012;-7.064;2023-05-10T04:01:14;98786.44;;;17.66;49.49
60240;BME280;46102;39.012;-7.064;2023-05-10T04:03:15;98783.31;;;17.67;49.48
60240;BME280;46102;39.012;-7.064;2023-05-10T04:05:16;98778.03;;;17.62;49.38
60240;BME280;46102;39.012;-7.064;2023-05-10T04:07:17;98791.44;;;17.60;49.68
60240;BME280;46102;39.012;-7.064;2023-05-10T04:09:18;98777.50;;;17.57;49.66
60240;BME280;46102;39.012;-7.064;2023-05-10T04:11:19;98779.38;;;17.53;49.54
60240;BME280;46102;39.012;-7.064;2023-05-10T04:13:22;98784.03;;;17.48;49.50
60240;BME280;46102;39.012;-7.064;2023-05-10T04:15:23;98778.47;;;17.48;49.66
60240;BME280;46102;39.012;-7.064;2023-05-10T04:17:23;98780.72;;;17.43;49.56
60240;BME280;46102;39.012;-7.064;2023-05-10T04:19:29;98787.97;;;17.47;49.50
60240;BME280;46102;39.012;-7.064;2023-05-10T04:21:30;98792.97;;;17.42;49.36
60240;BME280;46102;39.012;-7.064;2023-05-10T04:23:30;98793.41;;;17.44;49.61
60240;BME280;46102;39.012;-7.064;2023-05-10T04:25:34;98793.59;;;17.35;49.90
60240;BME280;46102;39.012;-7.064;2023-05-10T04:27:35;98791.16;;;17.34;49.58
60240;BME280;46102;39.012;-7.064;2023-05-10T04:29:36;98793.59;;;17.35;49.64
60240;BME280;46102;39.012;-7.064;2023-05-10T04:31:37;98793.06;;;17.30;49.90
60240;BME280;46102;39.012;-7.064;2023-05-10T04:33:38;98790.34;;;17.33;49.65
60240;BME280;46102;39.012;-7.064;2023-05-10T04:35:39;98789.03;;;17.27;49.76
60240;BME280;46102;39.012;-7.064;2023-05-10T04:37:40;98786.44;;;17.34;49.46
60240;BME280;46102;39.012;-7.064;2023-05-10T04:39:41;98792.34;;;17.33;49.30
60240;BME280;46102;39.012;-7.064;2023-05-10T04:41:41;98786.16;;;17.23;49.54
60240;BME280;46102;39.012;-7.064;2023-05-10T04:43:42;98785.69;;;17.21;49.43
60240;BME280;46102;39.012;-7.064;2023-05-10T04:45:43;98788.94;;;17.23;49.71
60240;BME280;46102;39.012;-7.064;2023-05-10T04:47:44;98784.44;;;17.19;49.42
60240;BME280;46102;39.012;-7.064;2023-05-10T04:49:44;98788.75;;;17.16;49.79
60240;BME280;46102;39.012;-7.064;2023-05-10T04:51:45;98787.50;;;17.14;49.70
60240;BME280;46102;39.012;-7.064;2023-05-10T04:53:46;98786.66;;;17.13;49.84
60240;BME280;46102;39.012;-7.064;2023-05-10T04:55:47;98776.31;;;17.10;49.60
60240;BME280;46102;39.012;-7.064;2023-05-10T04:57:48;98774.69;;;17.09;49.64
60240;BME280;46102;39.012;-7.064;2023-05-10T04:59:49;98785.34;;;17.07;49.64
60240;BME280;46102;39.012;-7.064;2023-05-10T05:01:49;98784.44;;;17.03;49.54
60240;BME280;46102;39.012;-7.064;2023-05-10T05:03:50;98787.00;;;16.96;49.60
60240;BME280;46102;39.012;-7.064;2023-05-10T05:05:53;98778.13;;;16.90;49.63
60240;BME280;46102;39.012;-7.064;2023-05-10T05:07:53;98795.56;;;16.91;49.67
60240;BME280;46102;39.012;-7.064;2023-05-10T05:09:54;98799.38;;;16.86;49.90
60240;BME280;46102;39.012;-7.064;2023-05-10T05:11:55;98803.31;;;16.85;49.71
60240;BME280;46102;39.012;-7.064;2023-05-10T05:13:56;98810.25;;;16.79;49.84
60240;BME280;46102;39.012;-7.064;2023-05-10T05:16:03;98805.88;;;16.78;50.01
60240;BME280;46102;39.012;-7.064;2023-05-10T05:18:04;98813.84;;;16.79;49.82
60240;BME280;46102;39.012;-7.064;2023-05-10T05:20:05;98812.09;;;16.75;50.32
60240;BME280;46102;39.012;-7.064;2023-05-10T05:22:06;98825.75;;;16.68;50.59
60240;BME280;46102;39.012;-7.064;2023-05-10T05:24:08;98814.00;;;16.58;50.94
60240;BME280;46102;39.012;-7.064;2023-05-10T05:26:10;98824.06;;;16.51;51.10
60240;BME280;46102;39.012;-7.064;2023-05-10T05:28:11;98824.75;;;16.48;51.37
60240;BME280;46102;39.012;-7.064;2023-05-10T05:30:12;98829.75;;;16.42;51.22
60240;BME280;46102;39.012;-7.064;2023-05-10T05:32:13;98834.50;;;16.41;51.31
60240;BME280;46102;39.012;-7.064;2023-05-10T05:34:13;98832.72;;;16.37;51.50
60240;BME280;46102;39.012;-7.064;2023-05-10T05:36:14;98838.19;;;16.33;51.52
60240;BME280;46102;39.012;-7.064;2023-05-10T05:38:15;98829.41;;;16.31;51.47
60240;BME280;46102;39.012;-7.064;2023-05-10T05:40:16;98828.50;;;16.27;51.41
60240;BME280;46102;39.012;-7.064;2023-05-10T05:42:16;98834.28;;;16.22;51.69
60240;BME280;46102;39.012;-7.064;2023-05-10T05:44:19;98824.81;;;16.23;51.31
60240;BME280;46102;39.012;-7.064;2023-05-10T05:46:19;98830.59;;;16.30;50.99
60240;BME280;46102;39.012;-7.064;2023-05-10T05:48:20;98829.28;;;16.28;51.00
60240;BME280;46102;39.012;-7.064;2023-05-10T05:50:21;98826.19;;;16.29;50.45
60240;BME280;46102;39.012;-7.064;2023-05-10T05:52:22;98823.53;;;16.33;49.98
60240;BME280;46102;39.012;-7.064;2023-05-10T05:54:23;98821.44;;;16.30;49.87
60240;BME280;46102;39.012;-7.064;2023-05-10T05:56:23;98827.81;;;16.30;49.48
60240;BME280;46102;39.012;-7.064;2023-05-10T05:58:25;98820.78;;;16.33;49.17
60240;BME280;46102;39.012;-7.064;2023-05-10T06:00:26;98826.38;;;16.49;48.57
60240;BME280;46102;39.012;-7.064;2023-05-10T06:02:27;98822.91;;;16.52;48.41
60240;BME280;46102;39.012;-7.064;2023-05-10T06:04:27;98827.84;;;16.58;48.21
60240;BME280;46102;39.012;-7.064;2023-05-10T06:06:28;98827.97;;;16.62;48.76
60240;BME280;46102;39.012;-7.064;2023-05-10T06:08:29;98831.53;;;16.62;49.93
60240;BME280;46102;39.012;-7.064;2023-05-10T06:10:30;98839.53;;;16.52;50.37
60240;BME280;46102;39.012;-7.064;2023-05-10T06:12:30;98834.56;;;16.45;50.42
60240;BME280;46102;39.012;-7.064;2023-05-10T06:14:31;98828.44;;;16.52;50.08
60240;BME280;46102;39.012;-7.064;2023-05-10T06:16:32;98826.59;;;16.56;50.03
60240;BME280;46102;39.012;-7.064;2023-05-10T06:18:33;98831.44;;;16.59;50.02
60240;BME280;46102;39.012;-7.064;2023-05-10T06:20:34;98834.41;;;16.66;49.82
60240;BME280;46102;39.012;-7.064;2023-05-10T06:22:35;98833.00;;;16.72;49.85
60240;BME280;46102;39.012;-7.064;2023-05-10T06:24:36;98836.91;;;16.83;49.59
60240;BME280;46102;39.012;-7.064;2023-05-10T06:26:36;98840.25;;;16.89;49.58
60240;BME280;46102;39.012;-7.064;2023-05-10T06:28:37;98839.09;;;16.90;49.65
60240;BME280;46102;39.012;-7.064;2023-05-10T06:30:41;98850.81;;;16.99;49.46
60240;BME280;46102;39.012;-7.064;2023-05-10T06:32:42;98844.19;;;17.16;47.63
60240;BME280;46102;39.012;-7.064;2023-05-10T06:34:44;98848.59;;;17.33;45.92
60240;BME280;46102;39.012;-7.064;2023-05-10T06:36:45;98858.00;;;17.44;45.49
60240;BME280;46102;39.012;-7.064;2023-05-10T06:38:46;98864.00;;;17.62;44.92
60240;BME280;46102;39.012;-7.064;2023-05-10T06:40:46;98860.63;;;17.69;44.87
60240;BME280;46102;39.012;-7.064;2023-05-10T06:42:47;98860.91;;;17.80;44.48
60240;BME280;46102;39.012;-7.064;2023-05-10T06:44:48;98857.06;;;18.00;43.93
60240;BME280;46102;39.012;-7.064;2023-05-10T06:46:49;98852.06;;;18.06;43.59
60240;BME280;46102;39.012;-7.064;2023-05-10T06:48:50;98851.06;;;18.14;43.43
60240;BME280;46102;39.012;-7.064;2023-05-10T06:50:51;98854.09;;;18.25;42.98
60240;BME280;46102;39.012;-7.064;2023-05-10T06:52:52;98850.97;;;18.26;42.80
60240;BME280;46102;39.012;-7.064;2023-05-10T06:54:52;98855.50;;;18.35;42.72
60240;BME280;46102;39.012;-7.064;2023-05-10T06:56:53;98849.91;;;18.50;42.14
60240;BME280;46102;39.012;-7.064;2023-05-10T06:58:54;98848.16;;;18.62;41.33
60240;BME280;46102;39.012;-7.064;2023-05-10T07:01:01;98844.81;;;18.72;41.43
60240;BME280;46102;39.012;-7.064;2023-05-10T07:03:02;98848.94;;;18.78;40.84
60240;BME280;46102;39.012;-7.064;2023-05-10T07:05:03;98847.91;;;18.86;40.82
60240;BME280;46102;39.012;-7.064;2023-05-10T07:07:04;98840.69;;;19.01;40.50
60240;BME280;46102;39.012;-7.064;2023-05-10T07:09:05;98856.41;;;19.13;40.15
60240;BME280;46102;39.012;-7.064;2023-05-10T07:11:07;98855.00;;;19.23;40.17
60240;BME280;46102;39.012;-7.064;2023-05-10T07:13:08;98848.47;;;19.34;39.69
60240;BME280;46102;39.012;-7.064;2023-05-10T07:15:09;98853.56;;;19.52;39.16
60240;BME280;46102;39.012;-7.064;2023-05-10T07:17:10;98856.34;;;19.52;39.12
60240;BME280;46102;39.012;-7.064;2023-05-10T07:19:10;98852.88;;;19.59;38.60
60240;BME280;46102;39.012;-7.064;2023-05-10T07:21:11;98846.19;;;19.63;38.44
60240;BME280;46102;39.012;-7.064;2023-05-10T07:23:12;98851.56;;;19.72;38.14
60240;BME280;46102;39.012;-7.064;2023-05-10T07:25:13;98854.16;;;19.84;37.60
60240;BME280;46102;39.012;-7.064;2023-05-10T07:27:13;98846.53;;;19.81;37.84
60240;BME280;46102;39.012;-7.064;2023-05-10T07:29:14;98854.72;;;19.93;37.65
60240;BME280;46102;39.012;-7.064;2023-05-10T07:31:15;98847.94;;;19.94;37.55
60240;BME280;46102;39.012;-7.064;2023-05-10T07:33:16;98857.34;;;20.09;37.13
60240;BME280;46102;39.012;-7.064;2023-05-10T07:35:17;98846.81;;;20.22;37.33
60240;BME280;46102;39.012;-7.064;2023-05-10T07:37:18;98852.09;;;20.31;36.92
60240;BME280;46102;39.012;-7.064;2023-05-10T07:39:18;98851.63;;;20.52;36.17
60240;BME280;46102;39.012;-7.064;2023-05-10T07:41:20;98852.97;;;20.62;35.74
60240;BME280;46102;39.012;-7.064;2023-05-10T07:43:22;98856.56;;;20.62;36.06
60240;BME280;46102;39.012;-7.064;2023-05-10T07:45:23;98866.28;;;20.75;35.25
60240;BME280;46102;39.012;-7.064;2023-05-10T07:47:24;98857.66;;;20.84;34.92
60240;BME280;46102;39.012;-7.064;2023-05-10T07:49:25;98855.44;;;20.97;34.38
60240;BME280;46102;39.012;-7.064;2023-05-10T07:51:26;98851.97;;;21.07;33.66
60240;BME280;46102;39.012;-7.064;2023-05-10T07:53:28;98852.47;;;21.16;34.19
60240;BME280;46102;39.012;-7.064;2023-05-10T07:55:29;98852.84;;;21.15;34.02
60240;BME280;46102;39.012;-7.064;2023-05-10T07:57:30;98849.06;;;21.30;33.34
60240;BME280;46102;39.012;-7.064;2023-05-10T07:59:31;98852.72;;;21.38;33.56
60240;BME280;46102;39.012;-7.064;2023-05-10T08:01:33;98855.22;;;21.47;33.09
60240;BME280;46102;39.012;-7.064;2023-05-10T08:03:35;98856.56;;;21.60;32.45
60240;BME280;46102;39.012;-7.064;2023-05-10T08:05:35;98858.22;;;21.68;32.47
60240;BME280;46102;39.012;-7.064;2023-05-10T08:07:36;98860.00;;;21.87;31.88
60240;BME280;46102;39.012;-7.064;2023-05-10T08:09:37;98851.72;;;21.98;31.53
60240;BME280;46102;39.012;-7.064;2023-05-10T08:11:38;98849.81;;;22.09;31.26
60240;BME280;46102;39.012;-7.064;2023-05-10T08:13:38;98848.72;;;22.24;31.25
60240;BME280;46102;39.012;-7.064;2023-05-10T08:15:39;98848.78;;;22.28;30.73
60240;BME280;46102;39.012;-7.064;2023-05-10T08:17:40;98843.34;;;22.50;30.88
60240;BME280;46102;39.012;-7.064;2023-05-10T08:19:40;98846.59;;;22.70;30.73
60240;BME280;46102;39.012;-7.064;2023-05-10T08:21:41;98843.91;;;22.84;29.71
60240;BME280;46102;39.012;-7.064;2023-05-10T08:23:42;98840.31;;;22.83;29.78
60240;BME280;46102;39.012;-7.064;2023-05-10T08:25:44;98835.22;;;23.00;30.00
60240;BME280;46102;39.012;-7.064;2023-05-10T08:27:45;98830.03;;;23.09;29.89
60240;BME280;46102;39.012;-7.064;2023-05-10T08:29:46;98831.72;;;23.32;29.18
60240;BME280;46102;39.012;-7.064;2023-05-10T08:31:46;98829.34;;;23.48;28.55
60240;BME280;46102;39.012;-7.064;2023-05-10T08:33:47;98832.56;;;23.61;28.36
60240;BME280;46102;39.012;-7.064;2023-05-10T08:35:48;98830.19;;;23.66;28.48
60240;BME280;46102;39.012;-7.064;2023-05-10T08:37:49;98825.75;;;23.65;28.45
60240;BME280;46102;39.012;-7.064;2023-05-10T08:39:49;98840.97;;;23.64;27.77
60240;BME280;46102;39.012;-7.064;2023-05-10T08:41:51;98840.97;;;23.72;28.25
60240;BME280;46102;39.012;-7.064;2023-05-10T08:43:54;98852.59;;;23.77;28.05
60240;BME280;46102;39.012;-7.064;2023-05-10T08:45:55;98851.00;;;23.83;27.99
60240;BME280;46102;39.012;-7.064;2023-05-10T08:48:02;98850.22;;;23.90;27.38
60240;BME280;46102;39.012;-7.064;2023-05-10T08:50:06;98841.81;;;24.04;27.77
60240;BME280;46102;39.012;-7.064;2023-05-10T08:52:08;98841.41;;;24.13;27.92
60240;BME280;46102;39.012;-7.064;2023-05-10T08:54:10;98843.00;;;24.28;27.26
60240;BME280;46102;39.012;-7.064;2023-05-10T08:56:11;98845.03;;;24.21;27.37
60240;BME280;46102;39.012;-7.064;2023-05-10T08:58:12;98844.22;;;24.17;27.04
60240;BME280;46102;39.012;-7.064;2023-05-10T09:00:13;98850.63;;;24.10;26.91
60240;BME280;46102;39.012;-7.064;2023-05-10T09:02:15;98840.22;;;24.14;26.68
60240;BME280;46102;39.012;-7.064;2023-05-10T09:04:17;98851.00;;;24.26;26.60
60240;BME280;46102;39.012;-7.064;2023-05-10T09:06:18;98841.38;;;24.31;26.98
60240;BME280;46102;39.012;-7.064;2023-05-10T09:08:19;98847.00;;;24.52;27.02
60240;BME280;46102;39.012;-7.064;2023-05-10T09:10:21;98843.28;;;24.81;26.30
60240;BME280;46102;39.012;-7.064;2023-05-10T09:12:23;98841.97;;;25.10;25.56
60240;BME280;46102;39.012;-7.064;2023-05-10T09:14:24;98840.34;;;25.17;25.35
60240;BME280;46102;39.012;-7.064;2023-05-10T09:16:25;98835.91;;;25.26;25.83
60240;BME280;46102;39.012;-7.064;2023-05-10T09:18:27;98834.25;;;25.32;25.46
60240;BME280;46102;39.012;-7.064;2023-05-10T09:20:28;98825.34;;;25.48;24.71
60240;BME280;46102;39.012;-7.064;2023-05-10T09:22:32;98828.47;;;25.61;24.70
60240;BME280;46102;39.012;-7.064;2023-05-10T09:24:33;98834.09;;;25.65;24.16
60240;BME280;46102;39.012;-7.064;2023-05-10T09:26:34;98837.63;;;25.69;24.63
60240;BME280;46102;39.012;-7.064;2023-05-10T09:28:52;98832.44;;;25.67;24.18
60240;BME280;46102;39.012;-7.064;2023-05-10T09:30:53;98831.59;;;25.74;24.41
60240;BME280;46102;39.012;-7.064;2023-05-10T09:32:57;98833.41;;;26.02;23.91
60240;BME280;46102;39.012;-7.064;2023-05-10T09:35:06;98824.94;;;26.06;22.98
60240;BME280;46102;39.012;-7.064;2023-05-10T09:37:07;98827.22;;;26.22;22.93
60240;BME280;46102;39.012;-7.064;2023-05-10T09:39:08;98819.09;;;26.31;23.15
60240;BME280;46102;39.012;-7.064;2023-05-10T09:41:17;98818.22;;;26.37;22.59
60240;BME280;46102;39.012;-7.064;2023-05-10T09:43:19;98818.13;;;26.45;22.44
60240;BME280;46102;39.012;-7.064;2023-05-10T09:45:21;98819.22;;;26.58;21.93
60240;BME280;46102;39.012;-7.064;2023-05-10T09:47:22;98814.16;;;26.80;21.98
60240;BME280;46102;39.012;-7.064;2023-05-10T09:49:24;98804.31;;;26.95;21.10
60240;BME280;46102;39.012;-7.064;2023-05-10T09:51:25;98812.66;;;27.03;21.00
60240;BME280;46102;39.012;-7.064;2023-05-10T09:53:27;98804.97;;;27.07;20.72
60240;BME280;46102;39.012;-7.064;2023-05-10T09:55:44;98809.38;;;27.08;20.66
60240;BME280;46102;39.012;-7.064;2023-05-10T09:57:46;98812.84;;;27.23;20.35
60240;BME280;46102;39.012;-7.064;2023-05-10T09:59:48;98802.09;;;27.41;19.96
60240;BME280;46102;39.012;-7.064;2023-05-10T10:01:50;98807.00;;;27.37;20.07
60240;BME280;46102;39.012;-7.064;2023-05-10T10:03:52;98806.47;;;27.46;19.12
60240;BME280;46102;39.012;-7.064;2023-05-10T10:05:53;98818.16;;;27.44;19.33
60240;BME280;46102;39.012;-7.064;2023-05-10T10:08:03;98811.03;;;27.36;19.17
60240;BME280;46102;39.012;-7.064;2023-05-10T10:10:05;98803.50;;;27.56;18.65
60240;BME280;46102;39.012;-7.064;2023-05-10T10:12:11;98807.78;;;27.65;18.00
60240;BME280;46102;39.012;-7.064;2023-05-10T10:14:12;98812.25;;;27.62;18.29
60240;BME280;46102;39.012;-7.064;2023-05-10T10:16:13;98804.84;;;27.72;17.75
60240;BME280;46102;39.012;-7.064;2023-05-10T10:18:14;98807.06;;;27.88;17.20
60240;BME280;46102;39.012;-7.064;2023-05-10T10:20:16;98810.03;;;28.00;17.37
60240;BME280;46102;39.012;-7.064;2023-05-10T10:22:17;98800.28;;;28.05;18.19
60240;BME280;46102;39.012;-7.064;2023-05-10T10:24:18;98800.59;;;28.11;18.09
60240;BME280;46102;39.012;-7.064;2023-05-10T10:26:20;98801.63;;;28.20;17.41
60240;BME280;46102;39.012;-7.064;2023-05-10T10:28:33;98799.69;;;28.17;16.79
60240;BME280;46102;39.012;-7.064;2023-05-10T10:30:45;98805.59;;;28.23;17.09
60240;BME280;46102;39.012;-7.064;2023-05-10T10:33:04;98809.16;;;28.27;16.85
60240;BME280;46102;39.012;-7.064;2023-05-10T10:35:09;98816.50;;;28.44;17.16
60240;BME280;46102;39.012;-7.064;2023-05-10T10:37:10;98820.88;;;28.49;16.64
60240;BME280;46102;39.012;-7.064;2023-05-10T10:39:11;98820.31;;;28.58;15.80
60240;BME280;46102;39.012;-7.064;2023-05-10T10:41:36;98819.59;;;28.54;15.78
60240;BME280;46102;39.012;-7.064;2023-05-10T10:43:37;98818.22;;;28.62;16.46
60240;BME280;46102;39.012;-7.064;2023-05-10T10:45:39;98821.41;;;28.84;16.14
60240;BME280;46102;39.012;-7.064;2023-05-10T10:47:40;98818.00;;;28.93;15.73
60240;BME280;46102;39.012;-7.064;2023-05-10T10:49:51;98813.59;;;29.12;15.33
60240;BME280;46102;39.012;-7.064;2023-05-10T10:54:28;98806.47;;;29.23;15.31